sensor_id;sensor_type;location;lat;lon;timestamp;P1;durP1;ratioP1;P2;durP2;ratioP2
24325;SDS011;12448;45.532;5.290;2023-03-23T00:01:33;3.83;;;2.40;;
24325;SDS011;12448;45.532;5.290;2023-03-23T00:04:02;3.58;;;2.47;;
24325;SDS011;12448;45.532;5.290;2023-03-23T00:06:28;5.78;;;2.00;;
24325;SDS011;12448;45.532;5.290;2023-03-23T00:08:57;4.78;;;2.13;;
24325;SDS011;12448;45.532;5.290;2023-03-23T00:11:25;5.35;;;2.05;;
24325;SDS011;12448;45.532;5.290;2023-03-23T00:13:54;4.00;;;2.30;;
24325;SDS011;12448;45.532;5.290;2023-03-23T00:16:23;3.65;;;2.53;;
24325;SDS011;12448;45.532;5.290;2023-03-23T00:18:59;3.90;;;1.90;;
24325;SDS011;12448;45.532;5.290;2023-03-23T00:21:31;3.20;;;1.80;;
24325;SDS011;12448;45.532;5.290;2023-03-23T00:24:00;10.38;;;2.10;;
24325;SDS011;12448;45.532;5.290;2023-03-23T00:26:32;4.53;;;1.80;;
24325;SDS011;12448;45.532;5.290;2023-03-23T00:29:01;3.13;;;2.10;;
24325;SDS011;12448;45.532;5.290;2023-03-23T00:31:32;2.13;;;1.90;;
24325;SDS011;12448;45.532;5.290;2023-03-23T00:34:00;4.13;;;2.28;;
24325;SDS011;12448;45.532;5.290;2023-03-23T00:36:29;5.25;;;1.88;;
24325;SDS011;12448;45.532;5.290;2023-03-23T00:39:00;3.47;;;1.98;;
24325;SDS011;12448;45.532;5.290;2023-03-23T00:41:29;4.22;;;1.95;;
24325;SDS011;12448;45.532;5.290;2023-03-23T00:43:56;3.35;;;1.55;;
24325;SDS011;12448;45.532;5.290;2023-03-23T00:46:25;4.35;;;1.90;;
24325;SDS011;12448;45.532;5.290;2023-03-23T00:48:53;6.22;;;2.50;;
24325;SDS011;12448;45.532;5.290;2023-03-23T00:51:19;3.38;;;1.50;;
24325;SDS011;12448;45.532;5.290;2023-03-23T00:53:46;4.15;;;1.80;;
24325;SDS011;12448;45.532;5.290;2023-03-23T00:56:12;2.95;;;1.63;;
24325;SDS011;12448;45.532;5.290;2023-03-23T00:58:38;4.05;;;2.00;;
24325;SDS011;12448;45.532;5.290;2023-03-23T01:01:04;4.68;;;2.03;;
24325;SDS011;12448;45.532;5.290;2023-03-23T01:03:30;2.85;;;1.75;;
24325;SDS011;12448;45.532;5.290;2023-03-23T01:05:57;4.25;;;1.73;;
24325;SDS011;12448;45.532;5.290;2023-03-23T01:08:23;3.53;;;1.77;;
24325;SDS011;12448;45.532;5.290;2023-03-23T01:10:49;4.72;;;1.98;;
24325;SDS011;12448;45.532;5.290;2023-03-23T01:13:15;2.47;;;1.75;;
24325;SDS011;12448;45.532;5.290;2023-03-23T01:15:41;2.70;;;1.65;;
24325;SDS011;12448;45.532;5.290;2023-03-23T01:18:08;6.65;;;2.30;;
24325;SDS011;12448;45.532;5.290;2023-03-23T01:20:35;2.42;;;1.77;;
24325;SDS011;12448;45.532;5.290;2023-03-23T01:23:01;5.00;;;2.20;;
24325;SDS011;12448;45.532;5.290;2023-03-23T01:25:28;4.03;;;1.92;;
24325;SDS011;12448;45.532;5.290;2023-03-23T01:27:56;4.85;;;1.77;;
24325;SDS011;12448;45.532;5.290;2023-03-23T01:30:25;5.22;;;2.00;;
24325;SDS011;12448;45.532;5.290;2023-03-23T01:32:51;5.55;;;2.00;;
24325;SDS011;12448;45.532;5.290;2023-03-23T01:35:21;4.80;;;1.80;;
24325;SDS011;12448;45.532;5.290;2023-03-23T01:37:47;4.60;;;1.95;;
24325;SDS011;12448;45.532;5.290;2023-03-23T01:40:13;4.07;;;2.05;;
24325;SDS011;12448;45.532;5.290;2023-03-23T01:42:40;3.53;;;1.63;;
24325;SDS011;12448;45.532;5.290;2023-03-23T01:48:12;5.95;;;1.63;;
24325;SDS011;12448;45.532;5.290;2023-03-23T01:50:56;4.25;;;1.73;;
24325;SDS011;12448;45.532;5.290;2023-03-23T01:53:23;4.07;;;1.90;;
24325;SDS011;12448;45.532;5.290;2023-03-23T01:55:52;5.10;;;1.95;;
24325;SDS011;12448;45.532;5.290;2023-03-23T01:58:21;4.07;;;1.63;;
24325;SDS011;12448;45.532;5.290;2023-03-23T02:00:52;2.40;;;1.77;;
24325;SDS011;12448;45.532;5.290;2023-03-23T02:03:20;3.97;;;1.90;;
24325;SDS011;12448;45.532;5.290;2023-03-23T02:05:48;4.47;;;1.67;;
24325;SDS011;12448;45.532;5.290;2023-03-23T02:08:14;2.58;;;1.63;;
24325;SDS011;12448;45.532;5.290;2023-03-23T02:10:43;4.72;;;1.95;;
24325;SDS011;12448;45.532;5.290;2023-03-23T02:13:10;3.95;;;2.15;;
24325;SDS011;12448;45.532;5.290;2023-03-23T02:32:16;4.30;;;2.20;;
24325;SDS011;12448;45.532;5.290;2023-03-23T02:37:42;4.25;;;2.30;;
24325;SDS011;12448;45.532;5.290;2023-03-23T02:40:25;11.48;;;2.88;;
24325;SDS011;12448;45.532;5.290;2023-03-23T02:42:55;3.47;;;2.03;;
24325;SDS011;12448;45.532;5.290;2023-03-23T02:45:24;3.92;;;2.30;;
24325;SDS011;12448;45.532;5.290;2023-03-23T02:47:53;3.90;;;2.35;;
24325;SDS011;12448;45.532;5.290;2023-03-23T02:50:21;6.80;;;2.30;;
24325;SDS011;12448;45.532;5.290;2023-03-23T02:52:49;3.45;;;2.20;;
24325;SDS011;12448;45.532;5.290;2023-03-23T02:55:17;4.30;;;2.13;;
24325;SDS011;12448;45.532;5.290;2023-03-23T02:57:45;3.58;;;2.30;;
24325;SDS011;12448;45.532;5.290;2023-03-23T03:00:15;3.20;;;2.20;;
24325;SDS011;12448;45.532;5.290;2023-03-23T03:02:46;5.90;;;2.25;;
24325;SDS011;12448;45.532;5.290;2023-03-23T03:05:23;4.07;;;2.40;;
24325;SDS011;12448;45.532;5.290;2023-03-23T03:10:23;4.57;;;2.50;;
24325;SDS011;12448;45.532;5.290;2023-03-23T03:12:57;3.38;;;2.45;;
24325;SDS011;12448;45.532;5.290;2023-03-23T03:16:03;2.72;;;2.20;;
24325;SDS011;12448;45.532;5.290;2023-03-23T03:18:51;4.13;;;2.58;;
24325;SDS011;12448;45.532;5.290;2023-03-23T03:21:23;4.15;;;2.35;;
24325;SDS011;12448;45.532;5.290;2023-03-23T03:23:53;4.15;;;2.42;;
24325;SDS011;12448;45.532;5.290;2023-03-23T03:26:24;5.53;;;2.30;;
24325;SDS011;12448;45.532;5.290;2023-03-23T03:28:54;3.30;;;2.03;;
24325;SDS011;12448;45.532;5.290;2023-03-23T03:31:21;3.53;;;2.17;;
24325;SDS011;12448;45.532;5.290;2023-03-23T03:33:51;2.88;;;2.28;;
24325;SDS011;12448;45.532;5.290;2023-03-23T03:36:18;4.75;;;2.63;;
24325;SDS011;12448;45.532;5.290;2023-03-23T03:38:49;4.13;;;2.72;;
24325;SDS011;12448;45.532;5.290;2023-03-23T03:41:15;6.25;;;3.15;;
24325;SDS011;12448;45.532;5.290;2023-03-23T03:43:42;7.57;;;3.10;;
24325;SDS011;12448;45.532;5.290;2023-03-23T03:46:08;4.70;;;2.47;;
24325;SDS011;12448;45.532;5.290;2023-03-23T03:48:34;4.75;;;2.30;;
24325;SDS011;12448;45.532;5.290;2023-03-23T03:51:00;4.28;;;2.40;;
24325;SDS011;12448;45.532;5.290;2023-03-23T03:53:26;2.85;;;2.20;;
24325;SDS011;12448;45.532;5.290;2023-03-23T03:55:52;4.18;;;2.13;;
24325;SDS011;12448;45.532;5.290;2023-03-23T03:58:21;4.78;;;2.42;;
24325;SDS011;12448;45.532;5.290;2023-03-23T04:00:48;3.63;;;2.28;;
24325;SDS011;12448;45.532;5.290;2023-03-23T04:03:14;5.47;;;2.22;;
24325;SDS011;12448;45.532;5.290;2023-03-23T04:05:41;6.38;;;2.45;;
24325;SDS011;12448;45.532;5.290;2023-03-23T04:08:07;5.50;;;2.22;;
24325;SDS011;12448;45.532;5.290;2023-03-23T04:10:33;3.17;;;2.00;;
24325;SDS011;12448;45.532;5.290;2023-03-23T04:12:59;6.07;;;2.50;;
24325;SDS011;12448;45.532;5.290;2023-03-23T04:15:25;3.92;;;2.05;;
24325;SDS011;12448;45.532;5.290;2023-03-23T04:17:51;3.33;;;2.20;;
24325;SDS011;12448;45.532;5.290;2023-03-23T04:20:21;3.40;;;2.40;;
24325;SDS011;12448;45.532;5.290;2023-03-23T04:22:48;4.80;;;2.40;;
24325;SDS011;12448;45.532;5.290;2023-03-23T04:25:20;7.10;;;2.47;;
24325;SDS011;12448;45.532;5.290;2023-03-23T04:27:47;5.35;;;2.28;;
24325;SDS011;12448;45.532;5.290;2023-03-23T04:30:22;5.70;;;2.65;;
24325;SDS011;12448;45.532;5.290;2023-03-23T04:32:50;3.25;;;2.05;;
24325;SDS011;12448;45.532;5.290;2023-03-23T04:35:17;3.20;;;2.10;;
24325;SDS011;12448;45.532;5.290;2023-03-23T04:37:44;3.95;;;2.40;;
24325;SDS011;12448;45.532;5.290;2023-03-23T04:40:11;6.18;;;2.63;;
24325;SDS011;12448;45.532;5.290;2023-03-23T04:42:39;5.15;;;2.40;;
24325;SDS011;12448;45.532;5.290;2023-03-23T04:45:10;4.72;;;2.35;;
24325;SDS011;12448;45.532;5.290;2023-03-23T04:47:39;4.25;;;2.70;;
24325;SDS011;12448;45.532;5.290;2023-03-23T04:50:10;3.40;;;2.30;;
24325;SDS011;12448;45.532;5.290;2023-03-23T04:52:38;8.23;;;3.27;;
24325;SDS011;12448;45.532;5.290;2023-03-23T04:55:05;4.43;;;2.40;;
24325;SDS011;12448;45.532;5.290;2023-03-23T04:57:33;3.40;;;2.15;;
24325;SDS011;12448;45.532;5.290;2023-03-23T05:00:00;5.15;;;2.30;;
24325;SDS011;12448;45.532;5.290;2023-03-23T05:02:29;6.88;;;2.50;;
24325;SDS011;12448;45.532;5.290;2023-03-23T05:04:56;4.85;;;2.70;;
24325;SDS011;12448;45.532;5.290;2023-03-23T05:07:22;5.95;;;2.72;;
24325;SDS011;12448;45.532;5.290;2023-03-23T05:09:48;4.35;;;2.75;;
24325;SDS011;12448;45.532;5.290;2023-03-23T05:12:14;5.90;;;2.70;;
24325;SDS011;12448;45.532;5.290;2023-03-23T05:14:41;5.55;;;2.58;;
24325;SDS011;12448;45.532;5.290;2023-03-23T05:17:07;4.70;;;2.45;;
24325;SDS011;12448;45.532;5.290;2023-03-23T05:19:34;5.70;;;2.63;;
24325;SDS011;12448;45.532;5.290;2023-03-23T05:22:00;5.35;;;2.65;;
24325;SDS011;12448;45.532;5.290;2023-03-23T05:24:31;6.38;;;2.65;;
24325;SDS011;12448;45.532;5.290;2023-03-23T05:26:58;3.90;;;2.53;;
24325;SDS011;12448;45.532;5.290;2023-03-23T05:29:25;3.60;;;2.70;;
24325;SDS011;12448;45.532;5.290;2023-03-23T05:31:52;4.25;;;2.55;;
24325;SDS011;12448;45.532;5.290;2023-03-23T05:34:20;3.58;;;2.45;;
24325;SDS011;12448;45.532;5.290;2023-03-23T05:36:46;5.03;;;2.55;;
24325;SDS011;12448;45.532;5.290;2023-03-23T05:39:12;4.68;;;2.83;;
24325;SDS011;12448;45.532;5.290;2023-03-23T05:41:39;6.70;;;2.90;;
24325;SDS011;12448;45.532;5.290;2023-03-23T05:44:05;4.70;;;2.90;;
24325;SDS011;12448;45.532;5.290;2023-03-23T05:46:31;4.68;;;2.67;;
24325;SDS011;12448;45.532;5.290;2023-03-23T05:48:57;4.55;;;2.65;;
24325;SDS011;12448;45.532;5.290;2023-03-23T05:51:22;5.35;;;2.60;;
24325;SDS011;12448;45.532;5.290;2023-03-23T05:53:49;3.97;;;2.40;;
24325;SDS011;12448;45.532;5.290;2023-03-23T05:56:15;4.97;;;2.83;;
24325;SDS011;12448;45.532;5.290;2023-03-23T05:58:40;5.10;;;2.90;;
24325;SDS011;12448;45.532;5.290;2023-03-23T06:01:06;5.15;;;3.00;;
24325;SDS011;12448;45.532;5.290;2023-03-23T06:03:33;4.30;;;2.63;;
24325;SDS011;12448;45.532;5.290;2023-03-23T06:06:01;4.97;;;2.50;;
24325;SDS011;12448;45.532;5.290;2023-03-23T06:08:28;3.95;;;2.45;;
24325;SDS011;12448;45.532;5.290;2023-03-23T06:10:54;4.70;;;2.40;;
24325;SDS011;12448;45.532;5.290;2023-03-23T06:13:20;5.00;;;2.70;;
24325;SDS011;12448;45.532;5.290;2023-03-23T06:15:46;5.35;;;2.80;;
24325;SDS011;12448;45.532;5.290;2023-03-23T06:18:12;6.88;;;3.10;;
24325;SDS011;12448;45.532;5.290;2023-03-23T06:20:38;4.95;;;2.67;;
24325;SDS011;12448;45.532;5.290;2023-03-23T06:23:05;6.47;;;2.60;;
24325;SDS011;12448;45.532;5.290;2023-03-23T06:25:31;5.43;;;3.00;;
24325;SDS011;12448;45.532;5.290;2023-03-23T06:27:58;3.58;;;2.78;;
24325;SDS011;12448;45.532;5.290;2023-03-23T06:30:24;5.75;;;2.95;;
24325;SDS011;12448;45.532;5.290;2023-03-23T06:32:51;4.63;;;3.03;;
24325;SDS011;12448;45.532;5.290;2023-03-23T06:35:18;4.47;;;2.97;;
24325;SDS011;12448;45.532;5.290;2023-03-23T06:37:44;7.63;;;3.58;;
24325;SDS011;12448;45.532;5.290;2023-03-23T06:40:11;4.95;;;2.90;;
24325;SDS011;12448;45.532;5.290;2023-03-23T06:42:36;5.20;;;3.08;;
24325;SDS011;12448;45.532;5.290;2023-03-23T06:45:03;6.80;;;3.05;;
24325;SDS011;12448;45.532;5.290;2023-03-23T06:47:29;6.13;;;2.90;;
24325;SDS011;12448;45.532;5.290;2023-03-23T06:50:17;4.90;;;3.20;;
24325;SDS011;12448;45.532;5.290;2023-03-23T06:52:46;5.57;;;3.15;;
24325;SDS011;12448;45.532;5.290;2023-03-23T06:55:16;5.10;;;2.75;;
24325;SDS011;12448;45.532;5.290;2023-03-23T06:57:42;6.47;;;3.15;;
24325;SDS011;12448;45.532;5.290;2023-03-23T07:00:10;7.13;;;3.42;;
24325;SDS011;12448;45.532;5.290;2023-03-23T07:02:38;9.73;;;3.60;;
24325;SDS011;12448;45.532;5.290;2023-03-23T07:05:05;7.95;;;3.25;;
24325;SDS011;12448;45.532;5.290;2023-03-23T07:07:32;5.57;;;3.30;;
24325;SDS011;12448;45.532;5.290;2023-03-23T07:09:58;6.30;;;3.40;;
24325;SDS011;12448;45.532;5.290;2023-03-23T07:12:23;6.13;;;3.58;;
24325;SDS011;12448;45.532;5.290;2023-03-23T07:14:52;4.82;;;3.33;;
24325;SDS011;12448;45.532;5.290;2023-03-23T07:17:18;5.72;;;3.60;;
24325;SDS011;12448;45.532;5.290;2023-03-23T07:19:44;5.53;;;3.70;;
24325;SDS011;12448;45.532;5.290;2023-03-23T07:22:10;6.70;;;3.45;;
24325;SDS011;12448;45.532;5.290;2023-03-23T07:24:35;8.18;;;4.00;;
24325;SDS011;12448;45.532;5.290;2023-03-23T07:27:01;9.40;;;4.18;;
24325;SDS011;12448;45.532;5.290;2023-03-23T07:29:27;7.75;;;3.67;;
24325;SDS011;12448;45.532;5.290;2023-03-23T07:31:53;5.22;;;3.55;;
24325;SDS011;12448;45.532;5.290;2023-03-23T07:34:19;7.47;;;4.10;;
24325;SDS011;12448;45.532;5.290;2023-03-23T07:36:45;9.75;;;4.32;;
24325;SDS011;12448;45.532;5.290;2023-03-23T07:39:11;8.02;;;4.25;;
24325;SDS011;12448;45.532;5.290;2023-03-23T07:41:40;6.10;;;4.00;;
24325;SDS011;12448;45.532;5.290;2023-03-23T07:44:06;7.07;;;4.03;;
24325;SDS011;12448;45.532;5.290;2023-03-23T07:46:32;6.53;;;4.15;;
24325;SDS011;12448;45.532;5.290;2023-03-23T07:48:58;7.45;;;3.80;;
24325;SDS011;12448;45.532;5.290;2023-03-23T07:51:24;8.55;;;4.03;;
24325;SDS011;12448;45.532;5.290;2023-03-23T07:53:49;7.47;;;4.00;;
24325;SDS011;12448;45.532;5.290;2023-03-23T07:56:16;8.00;;;3.80;;
24325;SDS011;12448;45.532;5.290;2023-03-23T07:58:45;7.38;;;4.18;;
24325;SDS011;12448;45.532;5.290;2023-03-23T08:01:11;9.60;;;4.40;;
24325;SDS011;12448;45.532;5.290;2023-03-23T08:03:37;6.90;;;4.25;;
24325;SDS011;12448;45.532;5.290;2023-03-23T08:06:03;7.65;;;4.38;;
24325;SDS011;12448;45.532;5.290;2023-03-23T08:08:30;6.43;;;4.35;;
24325;SDS011;12448;45.532;5.290;2023-03-23T08:10:56;9.15;;;5.00;;
24325;SDS011;12448;45.532;5.290;2023-03-23T08:13:22;7.22;;;4.78;;
24325;SDS011;12448;45.532;5.290;2023-03-23T08:15:47;10.35;;;4.68;;
24325;SDS011;12448;45.532;5.290;2023-03-23T08:18:14;8.77;;;5.25;;
24325;SDS011;12448;45.532;5.290;2023-03-23T08:20:40;8.57;;;5.00;;
24325;SDS011;12448;45.532;5.290;2023-03-23T08:23:07;6.95;;;4.72;;
24325;SDS011;12448;45.532;5.290;2023-03-23T08:25:33;10.20;;;4.93;;
24325;SDS011;12448;45.532;5.290;2023-03-23T08:27:59;10.73;;;5.00;;
24325;SDS011;12448;45.532;5.290;2023-03-23T08:30:26;8.70;;;4.93;;
24325;SDS011;12448;45.532;5.290;2023-03-23T08:32:55;12.07;;;5.00;;
24325;SDS011;12448;45.532;5.290;2023-03-23T08:35:21;10.65;;;5.18;;
24325;SDS011;12448;45.532;5.290;2023-03-23T08:37:47;9.18;;;5.32;;
24325;SDS011;12448;45.532;5.290;2023-03-23T08:40:18;9.52;;;4.90;;
24325;SDS011;12448;45.532;5.290;2023-03-23T08:42:45;11.55;;;5.53;;
24325;SDS011;12448;45.532;5.290;2023-03-23T08:45:14;6.43;;;5.30;;
24325;SDS011;12448;45.532;5.290;2023-03-23T08:47:43;10.70;;;5.38;;
24325;SDS011;12448;45.532;5.290;2023-03-23T08:50:10;6.60;;;5.28;;
24325;SDS011;12448;45.532;5.290;2023-03-23T08:52:38;10.32;;;5.55;;
24325;SDS011;12448;45.532;5.290;2023-03-23T08:55:04;8.38;;;5.70;;
24325;SDS011;12448;45.532;5.290;2023-03-23T08:57:30;9.07;;;6.22;;
24325;SDS011;12448;45.532;5.290;2023-03-23T08:59:56;10.15;;;6.60;;
24325;SDS011;12448;45.532;5.290;2023-03-23T09:02:33;14.35;;;6.13;;
24325;SDS011;12448;45.532;5.290;2023-03-23T09:04:59;11.20;;;6.78;;
24325;SDS011;12448;45.532;5.290;2023-03-23T09:07:27;11.27;;;7.32;;
24325;SDS011;12448;45.532;5.290;2023-03-23T09:09:53;11.57;;;7.72;;
24325;SDS011;12448;45.532;5.290;2023-03-23T09:12:18;10.98;;;6.88;;
24325;SDS011;12448;45.532;5.290;2023-03-23T09:14:44;13.38;;;8.23;;
24325;SDS011;12448;45.532;5.290;2023-03-23T09:17:10;12.70;;;8.00;;
24325;SDS011;12448;45.532;5.290;2023-03-23T09:19:36;13.88;;;7.57;;
24325;SDS011;12448;45.532;5.290;2023-03-23T09:22:02;12.57;;;8.15;;
24325;SDS011;12448;45.532;5.290;2023-03-23T09:24:28;13.35;;;8.63;;
24325;SDS011;12448;45.532;5.290;2023-03-23T09:26:55;12.55;;;8.52;;
24325;SDS011;12448;45.532;5.290;2023-03-23T09:29:20;17.98;;;8.85;;
24325;SDS011;12448;45.532;5.290;2023-03-23T09:31:46;14.82;;;9.07;;
24325;SDS011;12448;45.532;5.290;2023-03-23T09:34:13;18.13;;;9.50;;
24325;SDS011;12448;45.532;5.290;2023-03-23T09:36:40;16.83;;;10.82;;
24325;SDS011;12448;45.532;5.290;2023-03-23T09:39:06;15.57;;;9.63;;
24325;SDS011;12448;45.532;5.290;2023-03-23T09:41:44;20.42;;;10.45;;
24325;SDS011;12448;45.532;5.290;2023-03-23T09:45:02;18.60;;;11.02;;
24325;SDS011;12448;45.532;5.290;2023-03-23T09:50:00;16.58;;;10.35;;
24325;SDS011;12448;45.532;5.290;2023-03-23T09:52:47;17.80;;;10.70;;
24325;SDS011;12448;45.532;5.290;2023-03-23T09:55:25;21.92;;;12.02;;
24325;SDS011;12448;45.532;5.290;2023-03-23T09:57:59;15.80;;;9.90;;
24325;SDS011;12448;45.532;5.290;2023-03-23T10:01:23;20.70;;;10.00;;
24325;SDS011;12448;45.532;5.290;2023-03-23T10:03:48;15.98;;;9.82;;
24325;SDS011;12448;45.532;5.290;2023-03-23T10:06:26;17.98;;;10.50;;
24325;SDS011;12448;45.532;5.290;2023-03-23T10:08:53;14.77;;;10.02;;
24325;SDS011;12448;45.532;5.290;2023-03-23T10:11:26;16.45;;;9.57;;
24325;SDS011;12448;45.532;5.290;2023-03-23T10:16:39;12.32;;;9.18;;
24325;SDS011;12448;45.532;5.290;2023-03-23T10:19:34;15.90;;;8.82;;
24325;SDS011;12448;45.532;5.290;2023-03-23T10:22:15;12.50;;;8.82;;
24325;SDS011;12448;45.532;5.290;2023-03-23T10:33:05;14.38;;;8.70;;
24325;SDS011;12448;45.532;5.290;2023-03-23T10:35:35;16.42;;;8.60;;
24325;SDS011;12448;45.532;5.290;2023-03-23T10:38:22;13.20;;;8.77;;
24325;SDS011;12448;45.532;5.290;2023-03-23T10:41:00;13.95;;;9.15;;
24325;SDS011;12448;45.532;5.290;2023-03-23T10:43:30;17.08;;;9.10;;
24325;SDS011;12448;45.532;5.290;2023-03-23T10:46:00;13.95;;;8.23;;
24325;SDS011;12448;45.532;5.290;2023-03-23T10:48:31;13.63;;;7.97;;
24325;SDS011;12448;45.532;5.290;2023-03-23T10:51:02;13.02;;;8.18;;
24325;SDS011;12448;45.532;5.290;2023-03-23T10:56:02;18.35;;;8.70;;
24325;SDS011;12448;45.532;5.290;2023-03-23T10:58:30;16.13;;;8.90;;
24325;SDS011;12448;45.532;5.290;2023-03-23T11:00:58;15.18;;;9.48;;
24325;SDS011;12448;45.532;5.290;2023-03-23T11:05:57;15.63;;;9.60;;
24325;SDS011;12448;45.532;5.290;2023-03-23T11:08:27;16.60;;;9.95;;
24325;SDS011;12448;45.532;5.290;2023-03-23T11:13:26;15.80;;;9.38;;
24325;SDS011;12448;45.532;5.290;2023-03-23T11:15:56;16.60;;;10.13;;
24325;SDS011;12448;45.532;5.290;2023-03-23T11:18:23;18.90;;;10.93;;
24325;SDS011;12448;45.532;5.290;2023-03-23T11:20:52;18.10;;;10.60;;
24325;SDS011;12448;45.532;5.290;2023-03-23T11:23:24;15.55;;;10.77;;
24325;SDS011;12448;45.532;5.290;2023-03-23T11:26:29;15.20;;;10.45;;
24325;SDS011;12448;45.532;5.290;2023-03-23T11:31:43;17.55;;;10.25;;
24325;SDS011;12448;45.532;5.290;2023-03-23T11:34:24;15.02;;;9.85;;
24325;SDS011;12448;45.532;5.290;2023-03-23T11:37:01;15.95;;;9.85;;
24325;SDS011;12448;45.532;5.290;2023-03-23T11:39:34;17.73;;;10.25;;
24325;SDS011;12448;45.532;5.290;2023-03-23T11:42:16;13.20;;;9.40;;
24325;SDS011;12448;45.532;5.290;2023-03-23T11:48:03;13.38;;;8.57;;
24325;SDS011;12448;45.532;5.290;2023-03-23T11:53:43;13.60;;;9.30;;
24325;SDS011;12448;45.532;5.290;2023-03-23T11:58:54;15.45;;;8.85;;
24325;SDS011;12448;45.532;5.290;2023-03-23T12:15:26;13.55;;;10.07;;
24325;SDS011;12448;45.532;5.290;2023-03-23T12:18:22;14.40;;;10.43;;
24325;SDS011;12448;45.532;5.290;2023-03-23T12:29:55;17.77;;;10.75;;
24325;SDS011;12448;45.532;5.290;2023-03-23T12:44:12;17.48;;;11.07;;
24325;SDS011;12448;45.532;5.290;2023-03-23T12:52:10;18.33;;;10.93;;
24325;SDS011;12448;45.532;5.290;2023-03-23T12:57:50;19.33;;;12.00;;
24325;SDS011;12448;45.532;5.290;2023-03-23T13:03:28;19.85;;;12.10;;
24325;SDS011;12448;45.532;5.290;2023-03-23T13:06:09;20.80;;;12.55;;
24325;SDS011;12448;45.532;5.290;2023-03-23T13:09:07;18.15;;;12.07;;
24325;SDS011;12448;45.532;5.290;2023-03-23T13:11:36;18.33;;;11.75;;
24325;SDS011;12448;45.532;5.290;2023-03-23T13:16:55;21.17;;;12.10;;
24325;SDS011;12448;45.532;5.290;2023-03-23T13:22:32;19.63;;;12.05;;
24325;SDS011;12448;45.532;5.290;2023-03-23T13:25:13;17.17;;;11.07;;
24325;SDS011;12448;45.532;5.290;2023-03-23T13:27:42;18.55;;;12.05;;
24325;SDS011;12448;45.532;5.290;2023-03-23T13:30:21;17.38;;;11.98;;
24325;SDS011;12448;45.532;5.290;2023-03-23T13:32:50;18.58;;;11.77;;
24325;SDS011;12448;45.532;5.290;2023-03-23T13:35:18;17.17;;;11.18;;
24325;SDS011;12448;45.532;5.290;2023-03-23T13:37:48;14.70;;;10.63;;
24325;SDS011;12448;45.532;5.290;2023-03-23T13:42:54;15.57;;;10.77;;
24325;SDS011;12448;45.532;5.290;2023-03-23T13:50:49;15.85;;;9.85;;
24325;SDS011;12448;45.532;5.290;2023-03-23T13:53:35;16.70;;;11.05;;
24325;SDS011;12448;45.532;5.290;2023-03-23T13:56:19;17.30;;;11.63;;
24325;SDS011;12448;45.532;5.290;2023-03-23T13:58:48;18.60;;;11.82;;
24325;SDS011;12448;45.532;5.290;2023-03-23T14:01:18;15.93;;;11.40;;
24325;SDS011;12448;45.532;5.290;2023-03-23T14:03:57;19.10;;;12.25;;
24325;SDS011;12448;45.532;5.290;2023-03-23T14:06:26;18.17;;;11.23;;
24325;SDS011;12448;45.532;5.290;2023-03-23T14:09:03;17.33;;;12.07;;
24325;SDS011;12448;45.532;5.290;2023-03-23T14:14:33;16.38;;;11.40;;
24325;SDS011;12448;45.532;5.290;2023-03-23T14:17:16;18.58;;;11.35;;
24325;SDS011;12448;45.532;5.290;2023-03-23T14:19:44;20.40;;;11.60;;
24325;SDS011;12448;45.532;5.290;2023-03-23T14:22:32;18.33;;;11.95;;
24325;SDS011;12448;45.532;5.290;2023-03-23T14:25:10;17.48;;;11.80;;
24325;SDS011;12448;45.532;5.290;2023-03-23T14:27:41;20.70;;;13.07;;
24325;SDS011;12448;45.532;5.290;2023-03-23T14:30:34;19.73;;;12.38;;
24325;SDS011;12448;45.532;5.290;2023-03-23T14:33:05;17.98;;;11.73;;
24325;SDS011;12448;45.532;5.290;2023-03-23T14:35:36;17.15;;;11.57;;
24325;SDS011;12448;45.532;5.290;2023-03-23T14:38:04;15.77;;;11.13;;
24325;SDS011;12448;45.532;5.290;2023-03-23T14:40:34;18.15;;;11.38;;
24325;SDS011;12448;45.532;5.290;2023-03-23T14:43:00;16.17;;;10.70;;
24325;SDS011;12448;45.532;5.290;2023-03-23T14:45:26;17.08;;;11.25;;
24325;SDS011;12448;45.532;5.290;2023-03-23T14:47:53;16.42;;;11.70;;
24325;SDS011;12448;45.532;5.290;2023-03-23T14:50:24;18.83;;;11.30;;
24325;SDS011;12448;45.532;5.290;2023-03-23T14:53:02;14.93;;;9.90;;
24325;SDS011;12448;45.532;5.290;2023-03-23T14:55:49;13.55;;;9.60;;
24325;SDS011;12448;45.532;5.290;2023-03-23T14:58:17;17.27;;;10.35;;
24325;SDS011;12448;45.532;5.290;2023-03-23T15:00:58;18.13;;;10.18;;
24325;SDS011;12448;45.532;5.290;2023-03-23T15:03:28;15.18;;;10.30;;
24325;SDS011;12448;45.532;5.290;2023-03-23T15:06:00;16.13;;;9.80;;
24325;SDS011;12448;45.532;5.290;2023-03-23T15:08:32;15.48;;;9.57;;
24325;SDS011;12448;45.532;5.290;2023-03-23T15:13:29;16.40;;;9.43;;
24325;SDS011;12448;45.532;5.290;2023-03-23T15:16:06;14.23;;;9.90;;
24325;SDS011;12448;45.532;5.290;2023-03-23T15:18:58;14.15;;;9.13;;
24325;SDS011;12448;45.532;5.290;2023-03-23T15:21:33;15.55;;;8.68;;
24325;SDS011;12448;45.532;5.290;2023-03-23T15:24:20;13.40;;;9.02;;
24325;SDS011;12448;45.532;5.290;2023-03-23T15:26:50;12.55;;;8.45;;
24325;SDS011;12448;45.532;5.290;2023-03-23T15:29:20;12.80;;;8.80;;
24325;SDS011;12448;45.532;5.290;2023-03-23T15:31:49;16.15;;;8.88;;
24325;SDS011;12448;45.532;5.290;2023-03-23T15:34:51;13.77;;;8.82;;
24325;SDS011;12448;45.532;5.290;2023-03-23T15:37:27;13.68;;;8.35;;
24325;SDS011;12448;45.532;5.290;2023-03-23T15:39:55;13.40;;;8.40;;
24325;SDS011;12448;45.532;5.290;2023-03-23T15:45:14;11.98;;;8.15;;
24325;SDS011;12448;45.532;5.290;2023-03-23T15:48:10;13.40;;;8.13;;
24325;SDS011;12448;45.532;5.290;2023-03-23T15:50:37;16.58;;;9.02;;
24325;SDS011;12448;45.532;5.290;2023-03-23T15:53:48;15.05;;;9.20;;
24325;SDS011;12448;45.532;5.290;2023-03-23T15:58:26;14.30;;;9.18;;
24325;SDS011;12448;45.532;5.290;2023-03-23T16:00:52;15.23;;;9.27;;
24325;SDS011;12448;45.532;5.290;2023-03-23T16:03:20;14.40;;;8.68;;
24325;SDS011;12448;45.532;5.290;2023-03-23T16:06:01;13.68;;;9.40;;
24325;SDS011;12448;45.532;5.290;2023-03-23T16:08:27;15.48;;;9.77;;
24325;SDS011;12448;45.532;5.290;2023-03-23T16:10:53;16.98;;;9.80;;
24325;SDS011;12448;45.532;5.290;2023-03-23T16:13:18;14.43;;;9.30;;
24325;SDS011;12448;45.532;5.290;2023-03-23T16:15:45;13.88;;;8.85;;
24325;SDS011;12448;45.532;5.290;2023-03-23T16:18:17;14.75;;;9.45;;
24325;SDS011;12448;45.532;5.290;2023-03-23T16:20:46;10.43;;;8.63;;
24325;SDS011;12448;45.532;5.290;2023-03-23T16:23:13;14.30;;;9.32;;
24325;SDS011;12448;45.532;5.290;2023-03-23T16:25:38;12.27;;;8.38;;
24325;SDS011;12448;45.532;5.290;2023-03-23T16:28:04;12.85;;;8.90;;
24325;SDS011;12448;45.532;5.290;2023-03-23T16:30:32;15.20;;;8.63;;
24325;SDS011;12448;45.532;5.290;2023-03-23T16:32:59;19.10;;;8.93;;
24325;SDS011;12448;45.532;5.290;2023-03-23T16:35:25;14.55;;;8.50;;
24325;SDS011;12448;45.532;5.290;2023-03-23T16:37:52;15.40;;;10.02;;
24325;SDS011;12448;45.532;5.290;2023-03-23T16:40:23;14.25;;;9.50;;
24325;SDS011;12448;45.532;5.290;2023-03-23T16:42:49;16.70;;;9.70;;
24325;SDS011;12448;45.532;5.290;2023-03-23T16:45:15;19.88;;;9.45;;
24325;SDS011;12448;45.532;5.290;2023-03-23T16:47:42;17.38;;;9.45;;
24325;SDS011;12448;45.532;5.290;2023-03-23T16:50:09;14.30;;;9.00;;
24325;SDS011;12448;45.532;5.290;2023-03-23T16:52:37;23.83;;;9.43;;
24325;SDS011;12448;45.532;5.290;2023-03-23T16:55:04;16.20;;;9.30;;
24325;SDS011;12448;45.532;5.290;2023-03-23T16:57:31;12.77;;;9.07;;
24325;SDS011;12448;45.532;5.290;2023-03-23T17:00:08;14.23;;;8.50;;
24325;SDS011;12448;45.532;5.290;2023-03-23T17:02:36;16.08;;;10.05;;
24325;SDS011;12448;45.532;5.290;2023-03-23T17:05:04;14.82;;;9.20;;
24325;SDS011;12448;45.532;5.290;2023-03-23T17:07:30;15.52;;;9.27;;